Time;durP1;ratioP1;P1;durP2;ratioP2;P2;SDS_P1;SDS_P2;PMS_P1;PMS_P2;Temp;Humidity;BMP_temperature;BMP_pressure;BME280_temperature;BME280_humidity;BME280_pressure;Samples;Min_cycle;Max_cycle;Signal;HPM_P1;HPM_P2
2023/10/06 00:00:47;;;;;;;1.90;1.80;;;;;;;13.73;nan;60921.88;5012273;28;20195;-64
2023/10/06 00:03:16;;;;;;;1.55;1.45;;;;;;;13.59;nan;61042.16;5011886;28;20230;-66
2023/10/06 00:05:42;;;;;;;1.58;1.48;;;;;;;13.65;nan;60876.94;5012102;28;20164;-66
2023/10/06 00:08:10;;;;;;;2.90;1.77;;;;;;;13.69;nan;60991.25;5012027;28;20201;-65
2023/10/06 00:10:44;;;;;;;1.50;1.17;;;;;;;13.89;nan;61074.84;5011911;28;20168;-63
2023/10/06 00:13:23;;;;;;;2.95;1.67;;;;;;;13.69;nan;61050.84;5011861;28;20195;-64
2023/10/06 00:15:51;;;;;;;2.30;1.75;;;;;;;13.66;nan;61026.38;5011626;28;20152;-63
2023/10/06 00:18:23;;;;;;;1.75;1.58;;;;;;;13.61;nan;60823.13;5012046;28;20168;-64
2023/10/06 00:20:49;;;;;;;1.65;1.55;;;;;;;13.62;nan;60888.97;5011899;28;20229;-62
2023/10/06 00:23:23;;;;;;;2.08;1.90;;;;;;;13.77;nan;61167.16;5011822;28;20667;-65
2023/10/06 00:25:54;;;;;;;1.63;1.52;;;;;;;13.71;nan;60955.00;5011886;28;20210;-63
2023/10/06 00:28:25;;;;;;;1.88;1.65;;;;;;;13.69;nan;60889.13;5011556;28;20207;-62
2023/10/06 00:30:55;;;;;;;1.58;1.48;;;;;;;13.86;nan;60945.66;5015094;28;20651;-63
2023/10/06 00:33:27;;;;;;;1.67;1.58;;;;;;;13.85;nan;60929.13;5015870;28;20234;-63
2023/10/06 00:35:53;;;;;;;2.22;1.83;;;;;;;13.86;nan;60930.25;5015399;28;20527;-65
2023/10/06 00:38:19;;;;;;;4.57;1.70;;;;;;;13.68;nan;60836.69;5015910;28;20225;-62
2023/10/06 00:40:51;;;;;;;4.15;1.77;;;;;;;13.73;nan;60862.28;5015423;28;20172;-64
2023/10/06 00:43:36;;;;;;;1.40;1.30;;;;;;;13.93;nan;61015.16;5015537;28;20711;-62
2023/10/06 00:46:14;;;;;;;2.53;1.77;;;;;;;13.85;nan;60909.16;5015273;28;20203;-63
2023/10/06 00:48:42;;;;;;;1.52;1.42;;;;;;;13.88;nan;60904.25;5015603;28;20168;-65
2023/10/06 00:51:28;;;;;;;1.65;1.55;;;;;;;13.86;nan;60887.19;5015674;28;20314;-63
2023/10/06 00:53:58;;;;;;;1.92;1.50;;;;;;;13.76;nan;60901.59;5015476;28;20251;-62
2023/10/06 00:56:23;;;;;;;1.67;1.50;;;;;;;13.77;nan;60922.69;5015403;28;20646;-62
2023/10/06 00:58:50;;;;;;;2.95;2.20;;;;;;;13.72;nan;60835.50;5015565;28;20699;-62
2023/10/06 01:01:19;;;;;;;4.45;1.80;;;;;;;10.73;nan;60636.78;5015261;28;20650;-63
2023/10/06 01:04:08;;;;;;;1.85;1.75;;;;;;;13.78;nan;60867.91;5015105;28;20207;-61
2023/10/06 01:06:35;;;;;;;2.00;1.75;;;;;;;13.79;nan;60847.91;5015259;28;20598;-66
2023/10/06 01:09:46;;;;;;;1.50;1.33;;;;;;;13.72;nan;60799.56;5015309;28;20515;-62
2023/10/06 01:11:52;;;;;;;1.77;1.67;;;;;;;13.61;nan;61046.41;5011517;28;20196;-61
2023/10/06 01:14:22;;;;;;;3.25;1.98;;;;;;;13.48;nan;60798.81;5014768;28;20179;-62
2023/10/06 01:16:51;;;;;;;1.67;1.52;;;;;;;13.51;nan;60945.88;5015051;28;20833;-62
2023/10/06 01:19:25;;;;;;;1.73;1.63;;;;;;;13.48;nan;60898.31;5014964;28;20600;-63
2023/10/06 01:21:53;;;;;;;1.83;1.40;;;;;;;13.44;nan;60852.78;5015269;28;20164;-63
2023/10/06 01:24:25;;;;;;;8.18;2.80;;;;;;;13.57;nan;60783.28;5014615;28;20223;-62
2023/10/06 01:27:06;;;;;;;1.40;1.17;;;;;;;13.52;nan;60730.91;5015142;28;20164;-64
2023/10/06 01:29:32;;;;;;;1.45;1.35;;;;;;;13.63;nan;60781.75;5013675;28;20172;-63
2023/10/06 01:32:04;;;;;;;5.97;1.45;;;;;;;13.48;nan;60716.16;5015043;28;20177;-61
2023/10/06 01:34:37;;;;;;;1.80;1.55;;;;;;;13.55;nan;60783.59;5014776;28;20168;-62
2023/10/06 01:37:03;;;;;;;1.25;1.17;;;;;;;13.51;nan;60779.09;5014392;28;20229;-63
2023/10/06 01:39:31;;;;;;;2.17;1.58;;;;;;;13.21;nan;60737.72;5014656;28;20200;-64
2023/10/06 01:41:57;;;;;;;1.40;1.30;;;;;;;13.30;nan;60949.91;5013452;28;20180;-63
2023/10/06 01:44:23;;;;;;;2.95;1.85;;;;;;;12.98;nan;60824.69;5014469;28;20781;-64
2023/10/06 01:46:54;;;;;;;1.83;1.52;;;;;;;12.99;nan;60821.28;5014616;28;20176;-64
2023/10/06 01:49:21;;;;;;;1.50;1.40;;;;;;;12.94;nan;60884.88;5013284;28;20596;-65
2023/10/06 01:51:50;;;;;;;1.40;1.30;;;;;;;13.00;nan;60826.94;5030865;28;20190;-64
2023/10/06 01:54:17;;;;;;;1.45;1.15;;;;;;;12.84;nan;60740.31;5014837;28;20176;-64
2023/10/06 01:56:42;;;;;;;1.67;1.42;;;;;;;12.72;nan;60840.16;5018502;28;20274;-64
2023/10/06 01:59:10;;;;;;;1.92;1.58;;;;;;;12.95;nan;60700.84;5034128;28;20298;-63
2023/10/06 02:01:40;;;;;;;3.08;1.23;;;;;;;12.75;nan;60699.47;5033743;28;20589;-65
2023/10/06 02:04:13;;;;;;;2.17;1.90;;;;;;;12.86;nan;60642.59;5033595;28;20187;-66
2023/10/06 02:06:41;;;;;;;1.27;1.20;;;;;;;12.61;nan;60653.03;5033796;28;20659;-64
2023/10/06 02:09:14;;;;;;;1.50;1.40;;;;;;;12.77;nan;60706.84;5033951;28;20649;-61
2023/10/06 02:11:44;;;;;;;1.70;1.60;;;;;;;12.50;nan;60738.03;5034014;28;20206;-62
2023/10/06 02:14:11;;;;;;;2.75;2.22;;;;;;;12.79;nan;60760.34;5033777;28;20168;-63
2023/10/06 02:16:37;;;;;;;1.70;1.50;;;;;;;12.48;nan;60766.53;5033985;28;20631;-65
2023/10/06 02:19:08;;;;;;;1.73;1.63;;;;;;;12.56;nan;60763.25;5033671;28;20655;-62
2023/10/06 02:21:38;;;;;;;1.70;1.60;;;;;;;12.68;nan;60704.41;5033767;28;20186;-63
2023/10/06 02:24:05;;;;;;;1.58;1.48;;;;;;;12.55;nan;60682.72;5033791;28;20278;-63
2023/10/06 02:26:36;;;;;;;1.40;1.30;;;;;;;12.80;nan;60879.38;5033637;28;20171;-64
2023/10/06 02:29:03;;;;;;;3.30;1.88;;;;;;;12.75;nan;60735.34;5033180;28;20195;-64
2023/10/06 02:31:29;;;;;;;2.35;1.88;;;;;;;12.71;nan;60780.13;5033266;28;20171;-64
2023/10/06 02:33:54;;;;;;;1.80;1.70;;;;;;;12.74;nan;60739.34;5033465;28;20178;-61
2023/10/06 02:36:22;;;;;;;4.00;2.03;;;;;;;12.35;nan;60701.81;5033241;28;20184;-64
2023/10/06 02:38:49;;;;;;;1.55;1.45;;;;;;;12.45;nan;60719.59;5033366;28;20191;-64
2023/10/06 02:41:18;;;;;;;1.80;1.67;;;;;;;12.24;nan;60817.50;5033223;28;20258;-60
2023/10/06 02:43:53;;;;;;;5.00;1.60;;;;;;;12.35;nan;60683.31;5032683;28;20682;-61
2023/10/06 02:46:25;;;;;;;1.85;1.75;;;;;;;12.35;nan;60689.00;5032971;28;20170;-65
2023/10/06 02:48:51;;;;;;;2.45;2.25;;;;;;;;;;5033121;28;20162;-65
2023/10/06 02:51:32;;;;;;;1.70;1.60;;;;;;;12.05;nan;60642.00;5033298;28;20539;-62
2023/10/06 02:56:46;;;;;;;2.88;1.42;;;;;;;11.90;nan;60518.81;5032785;28;20170;-64
2023/10/06 02:59:20;;;;;;;2.17;1.88;;;;;;;12.11;nan;60552.03;5033031;28;20253;-63
2023/10/06 03:01:54;;;;;;;1.30;1.20;;;;;;;12.24;nan;60555.78;5033116;28;20175;-62
2023/10/06 03:04:26;;;;;;;1.65;1.55;;;;;;;12.03;nan;60624.41;5031337;28;20246;-62
2023/10/06 03:06:58;;;;;;;1.40;1.30;;;;;;;12.00;nan;60488.50;5032704;28;20199;-64
2023/10/06 03:09:36;;;;;;;3.20;2.50;;;;;;;12.00;nan;60549.38;5032622;28;20164;-65
2023/10/06 03:12:11;;;;;;;1.45;1.35;;;;;;;11.97;nan;60484.59;5032897;28;20580;-63
2023/10/06 03:14:39;;;;;;;1.85;1.73;;;;;;;12.16;nan;60656.91;5032654;28;20170;-61
2023/10/06 03:17:06;;;;;;;1.63;1.52;;;;;;;12.08;nan;60694.56;5032467;28;20178;-64
2023/10/06 03:19:33;;;;;;;1.85;1.73;;;;;;;12.03;nan;60586.00;5029618;28;20312;-62
2023/10/06 03:22:04;;;;;;;1.10;1.05;;;;;;;12.02;nan;60531.16;5013564;28;20214;-63
2023/10/06 03:24:33;;;;;;;1.55;1.25;;;;;;;11.98;nan;60488.81;5013826;28;20290;-62
2023/10/06 03:27:04;;;;;;;2.60;2.00;;;;;;;12.20;nan;60676.75;5027512;28;20180;-64
2023/10/06 03:29:46;;;;;;;1.52;1.33;;;;;;;12.40;nan;60481.50;5011656;28;20191;-63
2023/10/06 03:32:18;;;;;;;2.05;1.95;;;;;;;12.28;nan;60562.81;5000488;28;20179;-66
2023/10/06 03:34:46;;;;;;;1.95;1.85;;;;;;;12.25;nan;60482.66;5030727;28;20550;-68
2023/10/06 03:37:15;;;;;;;1.15;1.10;;;;;;;12.35;nan;60457.97;5021170;28;20528;-64
2023/10/06 03:39:50;;;;;;;1.58;1.48;;;;;;;12.50;nan;60446.00;5012339;28;20180;-67
2023/10/06 03:42:20;;;;;;;2.78;1.77;;;;;;;12.54;nan;60527.31;5012397;28;20167;-63
2023/10/06 03:44:52;;;;;;;1.40;1.30;;;;;;;12.86;nan;60578.53;5012324;28;20202;-61
2023/10/06 03:47:18;;;;;;;1.52;1.33;;;;;;;12.68;nan;60584.56;5012391;28;20302;-64
2023/10/06 03:49:44;;;;;;;1.83;1.38;;;;;;;12.76;nan;60675.50;5012497;28;20615;-65
2023/10/06 03:52:09;;;;;;;1.67;1.42;;;;;;;12.70;nan;60583.69;5012176;28;20180;-63
2023/10/06 03:54:36;;;;;;;3.72;1.67;;;;;;;12.51;nan;60580.31;5012250;28;20250;-63
2023/10/06 03:57:01;;;;;;;1.75;1.45;;;;;;;12.61;nan;60658.72;5012064;28;20220;-64
2023/10/06 03:59:27;;;;;;;2.33;2.13;;;;;;;12.50;nan;60466.50;5012209;28;20262;-65
2023/10/06 04:01:52;;;;;;;3.83;1.60;;;;;;;12.37;nan;60445.41;5012140;28;20183;-63
2023/10/06 04:04:22;;;;;;;1.52;1.42;;;;;;;12.31;nan;60392.03;5011368;28;20279;-61
2023/10/06 04:06:48;;;;;;;1.55;1.45;;;;;;;12.23;nan;60424.06;5012430;28;20180;-61
2023/10/06 04:09:27;;;;;;;1.50;1.40;;;;;;;12.23;nan;60480.97;5011840;28;20179;-66
2023/10/06 04:11:52;;;;;;;1.30;1.25;;;;;;;12.34;nan;60403.09;5011813;28;20156;-61
2023/10/06 04:14:18;;;;;;;1.67;1.52;;;;;;;12.08;nan;60410.44;5011641;28;20543;-65
2023/10/06 04:16:45;;;;;;;1.58;1.48;;;;;;;12.13;nan;60418.56;5011516;28;20190;-63
2023/10/06 04:19:15;;;;;;;1.83;1.73;;;;;;;12.24;nan;60645.97;5011427;28;20232;-62
2023/10/06 04:21:40;;;;;;;1.27;1.23;;;;;;;12.15;nan;60566.75;5011261;28;20203;-65
2023/10/06 04:24:06;;;;;;;1.30;1.20;;;;;;;12.16;nan;60439.84;5011650;28;20199;-64
2023/10/06 04:26:31;;;;;;;1.40;1.30;;;;;;;12.12;nan;60519.84;5011535;28;20164;-61
2023/10/06 04:28:59;;;;;;;2.47;1.73;;;;;;;12.34;nan;60508.63;5011605;28;20669;-63
2023/10/06 04:31:24;;;;;;;2.95;2.03;;;;;;;12.46;nan;60692.56;5011627;28;20168;-62
2023/10/06 04:33:50;;;;;;;1.73;1.63;;;;;;;12.33;nan;60691.91;5011634;28;20518;-64
2023/10/06 04:36:20;;;;;;;1.58;1.48;;;;;;;12.41;nan;60700.31;5011302;28;20187;-63
2023/10/06 04:38:46;;;;;;;2.20;2.00;;;;;;;12.36;nan;60587.69;5011476;28;20203;-64
2023/10/06 04:41:11;;;;;;;0.98;0.98;;;;;;;12.27;nan;60510.47;5011545;28;20649;-65
2023/10/06 04:43:44;;;;;;;1.83;1.67;;;;;;;12.57;nan;60571.69;5010985;28;20571;-63
2023/10/06 04:46:09;;;;;;;1.60;1.50;;;;;;;12.29;nan;60499.91;5011410;28;20271;-65
2023/10/06 04:48:38;;;;;;;1.92;1.35;;;;;;;12.63;nan;60540.53;5011515;28;20715;-65
2023/10/06 04:51:04;;;;;;;1.90;1.42;;;;;;;12.78;nan;60615.69;5011446;28;20165;-63
2023/10/06 04:53:35;;;;;;;1.50;1.40;;;;;;;12.77;nan;60886.78;5010104;28;20195;-64
2023/10/06 04:56:04;;;;;;;1.38;1.27;;;;;;;12.85;nan;60649.19;5021598;28;20222;-64
2023/10/06 04:58:29;;;;;;;2.17;1.85;;;;;;;12.88;nan;60742.25;5009629;28;20273;-66
2023/10/06 05:00:59;;;;;;;1.65;1.55;;;;;;;12.80;nan;60762.03;5026712;28;20205;-65
2023/10/06 05:03:25;;;;;;;1.40;1.30;;;;;;;12.65;nan;60613.94;5012893;28;20196;-62
2023/10/06 05:05:50;;;;;;;3.55;2.22;;;;;;;13.09;nan;60860.69;5013630;28;20179;-61
2023/10/06 05:08:15;;;;;;;1.50;1.40;;;;;;;13.09;nan;60778.63;5030862;28;20176;-64
2023/10/06 05:10:41;;;;;;;1.27;1.17;;;;;;;13.41;nan;60847.41;5030567;28;20251;-63
2023/10/06 05:13:08;;;;;;;1.60;1.50;;;;;;;13.26;nan;60908.06;5030724;28;20190;-64
2023/10/06 05:15:34;;;;;;;1.60;1.48;;;;;;;13.63;nan;60841.34;5031728;28;20199;-61
2023/10/06 05:18:02;;;;;;;1.25;1.15;;;;;;;13.56;nan;60976.63;5034555;28;20175;-62
2023/10/06 05:20:35;;;;;;;1.50;1.40;;;;;;;13.84;nan;60876.66;5033991;28;20266;-64
2023/10/06 05:23:06;;;;;;;1.20;1.13;;;;;;;13.98;nan;60949.44;5021012;28;20704;-64
2023/10/06 05:25:32;;;;;;;1.83;1.73;;;;;;;14.05;nan;60905.97;5023069;28;20183;-64
2023/10/06 05:28:00;;;;;;;3.90;1.30;;;;;;;14.24;nan;60962.75;5023935;28;20183;-61
2023/10/06 05:30:27;;;;;;;2.45;2.00;;;;;;;14.29;nan;60983.78;5014584;28;20251;-61
2023/10/06 05:32:57;;;;;;;2.15;1.55;;;;;;;14.30;nan;61087.13;5030481;28;20286;-63
2023/10/06 05:35:24;;;;;;;1.85;1.30;;;;;;;14.45;nan;60962.72;5034461;28;20159;-62
2023/10/06 05:37:50;;;;;;;2.08;1.75;;;;;;;11.02;nan;62322.56;5034420;28;20543;-64
2023/10/06 05:40:16;;;;;;;2.85;1.63;;;;;;;14.75;nan;61155.88;5034512;28;20175;-66
2023/10/06 05:42:43;;;;;;;3.38;1.35;;;;;;;14.81;nan;61102.94;5034082;28;20705;-62
2023/10/06 05:45:21;;;;;;;1.70;1.17;;;;;;;14.78;nan;61140.72;5034324;28;20697;-66
2023/10/06 05:47:50;;;;;;;1.42;1.23;;;;;;;14.94;nan;61123.31;5034131;28;20170;-64
2023/10/06 05:50:27;;;;;;;2.72;1.70;;;;;;;15.04;nan;61072.84;5028259;28;20175;-64
2023/10/06 05:53:02;;;;;;;1.65;1.55;;;;;;;15.33;nan;61052.94;5013948;28;20282;-66
2023/10/06 05:55:35;;;;;;;1.50;1.40;;;;;;;15.37;nan;61222.75;5014072;28;20183;-62
2023/10/06 05:58:08;;;;;;;1.42;1.33;;;;;;;15.49;nan;61213.13;5013649;28;20314;-64
2023/10/06 06:00:35;;;;;;;7.25;1.48;;;;;;;15.64;nan;61272.72;5014033;28;20217;-65
2023/10/06 06:03:11;;;;;;;2.92;1.70;;;;;;;15.80;nan;61139.41;5013721;28;20520;-65
2023/10/06 06:05:40;;;;;;;1.58;1.40;;;;;;;16.13;nan;61188.94;5013770;28;20742;-62
2023/10/06 06:08:09;;;;;;;1.80;1.70;;;;;;;16.29;nan;61232.22;5014176;28;20187;-65
2023/10/06 06:10:35;;;;;;;1.55;1.45;;;;;;;16.45;nan;61180.66;5014280;28;20172;-65
2023/10/06 06:13:01;;;;;;;1.25;1.15;;;;;;;16.86;nan;61285.16;5014429;28;20156;-63
2023/10/06 06:15:26;;;;;;;1.50;1.40;;;;;;;16.79;nan;61308.75;5014153;28;20180;-62
2023/10/06 06:17:53;;;;;;;2.55;1.73;;;;;;;17.12;nan;61309.34;5014798;28;20237;-62
2023/10/06 06:20:21;;;;;;;1.70;1.60;;;;;;;17.26;nan;61316.84;5014321;28;20202;-63
2023/10/06 06:22:55;;;;;;;1.52;1.23;;;;;;;17.51;nan;61312.09;5013936;28;20168;-64
2023/10/06 06:25:22;;;;;;;1.50;1.38;;;;;;;17.79;nan;61350.38;5014014;28;20191;-64
2023/10/06 06:27:48;;;;;;;3.83;1.65;;;;;;;17.99;nan;61370.38;5013521;28;20259;-65
2023/10/06 06:30:18;;;;;;;2.17;1.80;;;;;;;18.29;nan;61419.25;5014180;28;20179;-64
2023/10/06 06:32:44;;;;;;;1.55;1.45;;;;;;;18.50;nan;61448.72;5013913;28;20659;-63
2023/10/06 06:35:13;;;;;;;6.63;1.55;;;;;;;18.70;nan;61465.63;5014320;28;20176;-66
2023/10/06 06:37:41;;;;;;;1.60;1.50;;;;;;;18.72;nan;61467.91;5013576;28;20322;-62
2023/10/06 06:40:10;;;;;;;1.45;1.17;;;;;;;18.92;nan;61609.06;5013919;28;20176;-64
2023/10/06 06:42:35;;;;;;;1.60;1.50;;;;;;;19.28;nan;61600.66;5013423;28;20180;-64
2023/10/06 06:45:01;;;;;;;1.30;1.20;;;;;;;19.20;nan;61524.25;5013646;28;20211;-65
2023/10/06 06:47:27;;;;;;;5.25;1.45;;;;;;;19.62;nan;61602.34;5013534;28;20283;-63
2023/10/06 06:49:52;;;;;;;3.67;1.60;;;;;;;19.70;nan;61571.97;5013733;28;20590;-63
2023/10/06 06:52:21;;;;;;;1.35;1.10;;;;;;;19.70;nan;61844.72;5013279;28;20242;-64
2023/10/06 06:54:48;;;;;;;2.85;1.52;;;;;;;19.56;nan;61699.22;5013065;28;20180;-62
2023/10/06 06:57:17;;;;;;;2.63;1.40;;;;;;;19.66;nan;61557.63;5013285;28;20231;-62
2023/10/06 06:59:44;;;;;;;2.33;1.67;;;;;;;20.06;nan;61641.28;5013482;28;20172;-60
2023/10/06 07:02:10;;;;;;;2.92;2.05;;;;;;;20.14;nan;61652.94;5013306;28;20179;-62
2023/10/06 07:04:35;;;;;;;2.53;1.42;;;;;;;20.27;nan;61708.63;5012812;28;20200;-64
2023/10/06 07:07:01;;;;;;;3.53;1.63;;;;;;;20.29;nan;61776.34;5013313;28;20172;-62
2023/10/06 07:09:27;;;;;;;2.75;1.60;;;;;;;20.40;nan;61761.75;5013691;28;20179;-64
2023/10/06 07:11:54;;;;;;;6.20;1.85;;;;;;;20.61;nan;61664.16;5013128;28;20180;-63
2023/10/06 07:14:20;;;;;;;6.60;3.05;;;;;;;20.78;nan;61703.63;5013325;28;20224;-64
2023/10/06 07:16:47;;;;;;;21.85;2.95;;;;;;;20.74;nan;61828.94;5013298;28;20675;-65
2023/10/06 07:19:14;;;;;;;1.30;1.13;;;;;;;21.03;nan;61731.44;5013001;28;20219;-64
2023/10/06 07:21:40;;;;;;;1.75;1.50;;;;;;;21.13;nan;61745.94;5013404;28;20172;-64
2023/10/06 07:24:06;;;;;;;2.08;1.23;;;;;;;21.20;nan;61830.72;5012798;28;20257;-61
2023/10/06 07:26:32;;;;;;;7.13;2.78;;;;;;;21.21;nan;61743.50;5012985;28;20168;-64
2023/10/06 07:28:59;;;;;;;2.47;1.60;;;;;;;21.18;nan;61779.09;5012691;28;20664;-62
2023/10/06 07:31:27;;;;;;;2.53;1.83;;;;;;;21.42;nan;61821.91;5012643;28;20250;-63
2023/10/06 07:33:54;;;;;;;4.15;1.90;;;;;;;21.58;nan;61824.50;5012929;28;20644;-64
2023/10/06 07:36:19;;;;;;;2.35;2.13;;;;;;;21.57;nan;61922.16;5013050;28;20168;-64
2023/10/06 07:38:45;;;;;;;3.85;2.17;;;;;;;21.78;nan;61857.03;5012393;28;20178;-64
2023/10/06 07:41:25;;;;;;;1.83;1.40;;;;;;;22.05;nan;61850.72;5012188;28;20253;-63
2023/10/06 07:43:51;;;;;;;1.98;1.75;;;;;;;22.19;nan;61856.78;5012459;28;20203;-64
2023/10/06 07:46:16;;;;;;;2.63;1.52;;;;;;;22.26;nan;61875.16;5012525;28;20184;-61
2023/10/06 07:48:44;;;;;;;2.05;1.85;;;;;;;22.58;nan;61868.69;5012585;28;20557;-65
2023/10/06 07:51:13;;;;;;;1.77;1.20;;;;;;;22.74;nan;62061.44;5012863;28;20183;-62
2023/10/06 07:53:39;;;;;;;1.48;1.33;;;;;;;22.46;nan;61991.06;5011750;28;20215;-62
2023/10/06 07:56:08;;;;;;;2.22;1.88;;;;;;;22.98;nan;61973.53;5018792;28;20732;-63
2023/10/06 07:58:40;;;;;;;1.58;1.30;;;;;;;22.85;nan;61951.50;5022621;28;20659;-65
2023/10/06 08:01:08;;;;;;;1.55;1.08;;;;;;;22.74;nan;62103.72;5012631;28;20180;-62
2023/10/06 08:03:38;;;;;;;1.45;1.35;;;;;;;22.50;nan;62000.25;5027428;28;20206;-63
2023/10/06 08:06:13;;;;;;;2.85;2.03;;;;;;;22.77;nan;61947.63;5032011;28;20182;-64
2023/10/06 08:08:39;;;;;;;1.42;1.30;;;;;;;22.80;nan;62087.06;5032422;28;20175;-65
2023/10/06 08:11:08;;;;;;;3.65;1.67;;;;;;;22.65;nan;62054.34;5031868;28;20174;-62
2023/10/06 08:13:35;;;;;;;2.55;1.10;;;;;;;22.51;nan;61905.03;5031878;28;20183;-68
2023/10/06 08:16:01;;;;;;;2.92;1.50;;;;;;;22.42;nan;61866.72;5031787;28;20600;-63
2023/10/06 08:18:30;;;;;;;2.55;1.55;;;;;;;22.51;nan;62007.16;5031416;28;20188;-63
2023/10/06 08:21:02;;;;;;;1.70;1.10;;;;;;;22.52;nan;61887.94;5032012;28;20225;-64
2023/10/06 08:23:31;;;;;;;1.77;1.52;;;;;;;22.01;nan;62093.97;5031885;28;20206;-65
2023/10/06 08:25:57;;;;;;;2.70;1.30;;;;;;;22.80;nan;61975.03;5031646;28;20199;-64
2023/10/06 08:28:26;;;;;;;4.30;1.20;;;;;;;22.94;nan;62003.41;5031856;28;20171;-63
2023/10/06 08:30:54;;;;;;;1.25;1.15;;;;;;;22.76;nan;62082.53;5032030;28;20174;-63
2023/10/06 08:33:20;;;;;;;2.95;1.67;;;;;;;22.82;nan;62000.19;5031864;28;20179;-62
2023/10/06 08:35:45;;;;;;;1.80;1.23;;;;;;;22.80;nan;61993.28;5031704;28;20524;-65
2023/10/06 08:38:11;;;;;;;2.78;1.30;;;;;;;22.71;nan;61860.03;5031604;28;20607;-64
2023/10/06 08:40:41;;;;;;;4.00;1.40;;;;;;;22.73;nan;61977.50;5031489;28;20168;-67
2023/10/06 08:43:07;;;;;;;2.03;1.60;;;;;;;22.64;nan;61922.97;5031871;28;20202;-63
2023/10/06 08:45:42;;;;;;;2.50;1.23;;;;;;;22.69;nan;62082.34;5031391;28;20618;-65
2023/10/06 08:48:10;;;;;;;1.73;1.42;;;;;;;22.76;nan;62014.22;5031948;28;20163;-66
2023/10/06 08:50:37;;;;;;;3.38;1.92;;;;;;;22.97;nan;61980.78;5032556;28;20167;-65
2023/10/06 08:53:09;;;;;;;1.55;1.45;;;;;;;22.68;nan;61909.28;5035451;28;20178;-64
2023/10/06 08:55:37;;;;;;;5.13;1.08;;;;;;;22.87;nan;62065.81;5035729;28;20171;-63
2023/10/06 08:58:04;;;;;;;2.05;1.10;;;;;;;22.96;nan;62015.56;5034960;28;20227;-65
2023/10/06 09:00:31;;;;;;;1.45;1.27;;;;;;;23.19;nan;62020.88;5035406;28;20255;-64
2023/10/06 09:03:03;;;;;;;2.53;1.23;;;;;;;23.19;nan;62154.41;5035786;28;20184;-65
2023/10/06 09:05:29;;;;;;;1.55;1.45;;;;;;;21.10;nan;61843.28;5034964;28;20274;-65
2023/10/06 09:08:12;;;;;;;1.75;1.40;;;;;;;23.24;nan;62084.50;5034967;28;20241;-63
2023/10/06 09:10:40;;;;;;;1.80;1.70;;;;;;;22.96;nan;62096.34;5017331;28;20699;-63
2023/10/06 09:13:12;;;;;;;2.08;1.25;;;;;;;23.50;nan;62144.28;5015112;28;20168;-63
2023/10/06 09:15:43;;;;;;;1.60;1.30;;;;;;;23.33;nan;62186.03;5013756;28;20192;-64
2023/10/06 09:18:18;;;;;;;1.80;1.27;;;;;;;23.63;nan;62157.06;5015009;28;20215;-64
2023/10/06 09:20:45;;;;;;;1.92;1.20;;;;;;;23.90;nan;62108.97;5014587;28;20176;-63
2023/10/06 09:23:11;;;;;;;2.75;1.67;;;;;;;23.78;nan;62221.16;5014734;28;20183;-63
2023/10/06 09:25:47;;;;;;;3.17;1.55;;;;;;;24.03;nan;62120.59;5014650;28;20180;-66
2023/10/06 09:28:17;;;;;;;2.53;1.48;;;;;;;24.40;nan;62269.88;5014282;28;20604;-61
2023/10/06 09:30:50;;;;;;;2.17;1.60;;;;;;;24.68;nan;62241.16;5014541;28;20179;-64
2023/10/06 09:33:16;;;;;;;4.10;2.63;;;;;;;24.78;nan;62150.63;5014640;28;20211;-64
2023/10/06 09:35:43;;;;;;;1.70;1.50;;;;;;;24.68;nan;62293.44;5014160;28;20643;-64
2023/10/06 09:38:17;;;;;;;2.50;1.58;;;;;;;25.23;nan;62203.38;5014006;28;20164;-65
2023/10/06 09:40:46;;;;;;;2.03;1.40;;;;;;;25.51;nan;62277.16;5014260;28;20242;-65
2023/10/06 09:43:15;;;;;;;3.17;1.55;;;;;;;25.31;nan;62346.47;5014174;28;20245;-61
2023/10/06 09:45:42;;;;;;;2.38;1.75;;;;;;;25.39;nan;62381.22;5014086;28;20639;-62
2023/10/06 09:48:15;;;;;;;1.52;1.40;;;;;;;25.31;nan;62254.91;5012302;28;20258;-64
2023/10/06 09:50:43;;;;;;;2.15;1.40;;;;;;;25.47;nan;62361.56;5013960;28;20255;-65
2023/10/06 09:53:14;;;;;;;2.33;2.13;;;;;;;25.65;nan;62424.03;5013970;28;20234;-64
2023/10/06 09:55:43;;;;;;;2.75;1.33;;;;;;;25.66;nan;62293.72;5014141;28;20682;-65
2023/10/06 09:58:08;;;;;;;2.80;1.67;;;;;;;25.76;nan;62358.03;5014214;28;20269;-64
2023/10/06 10:00:39;;;;;;;5.07;1.30;;;;;;;25.92;nan;62323.38;5014211;28;20161;-68
2023/10/06 10:03:06;;;;;;;5.60;1.20;;;;;;;25.94;nan;62334.06;5013386;28;20264;-63
2023/10/06 10:05:32;;;;;;;1.88;1.30;;;;;;;25.81;nan;62318.66;5014060;28;20176;-66
2023/10/06 10:07:58;;;;;;;1.92;1.20;;;;;;;25.93;nan;62405.72;5013556;28;20245;-64
2023/10/06 10:10:27;;;;;;;1.83;1.60;;;;;;;26.20;nan;62501.47;5014148;28;20172;-64
2023/10/06 10:13:11;;;;;;;2.53;1.30;;;;;;;26.14;nan;62487.31;5013881;28;20190;-65
2023/10/06 10:16:09;;;;;;;2.95;1.65;;;;;;;26.23;nan;62470.88;5013947;28;20202;-63
2023/10/06 10:18:40;;;;;;;2.53;1.45;;;;;;;26.41;nan;62448.94;5013895;28;20168;-63
2023/10/06 10:21:11;;;;;;;4.88;1.85;;;;;;;26.56;nan;62416.28;4968664;28;20650;-65
2023/10/06 10:23:40;;;;;;;2.95;1.38;;;;;;;26.94;nan;62428.22;4671100;28;20310;-65
2023/10/06 10:26:22;;;;;;;2.33;1.40;;;;;;;26.89;nan;62440.31;5013435;28;20172;-65
2023/10/06 10:29:15;;;;;;;1.58;1.40;;;;;;;27.29;nan;62561.53;5013245;28;20175;-65
2023/10/06 10:32:01;;;;;;;2.78;1.92;;;;;;;27.45;nan;62658.63;5005100;28;20671;-62
2023/10/06 10:34:33;;;;;;;1.98;1.42;;;;;;;25.10;nan;64219.25;5013830;28;20325;-66
2023/10/06 10:37:07;;;;;;;2.15;1.50;;;;;;;27.47;nan;62621.53;5013559;28;20172;-67
2023/10/06 10:39:52;;;;;;;5.13;1.52;;;;;;;26.87;nan;62477.38;5013491;28;20255;-64
2023/10/06 10:42:21;;;;;;;2.00;1.70;;;;;;;26.99;nan;62609.72;5013110;28;20175;-63
2023/10/06 10:44:48;;;;;;;2.20;1.50;;;;;;;27.04;nan;62515.75;5012725;28;20195;-65
2023/10/06 10:47:15;;;;;;;2.88;1.83;;;;;;;26.84;nan;62495.47;5013291;28;20666;-62
2023/10/06 10:49:41;;;;;;;2.70;1.80;;;;;;;26.82;nan;62430.22;5012718;28;20176;-66
2023/10/06 10:52:08;;;;;;;1.83;1.50;;;;;;;26.83;nan;62426.69;5012529;28;20188;-62
2023/10/06 10:54:36;;;;;;;3.75;2.25;;;;;;;27.02;nan;62516.06;5013548;28;20237;-64
2023/10/06 10:57:13;;;;;;;2.85;1.77;;;;;;;27.08;nan;62769.00;5013635;28;20302;-65
2023/10/06 11:00:12;;;;;;;2.30;2.05;;;;;;;27.07;nan;62574.28;5013521;28;20287;-64
2023/10/06 11:02:41;;;;;;;2.80;1.67;;;;;;;27.24;nan;62577.41;5013272;28;20164;-64
2023/10/06 11:05:07;;;;;;;2.00;1.80;;;;;;;27.26;nan;62519.31;5013209;28;20678;-65
2023/10/06 11:07:36;;;;;;;2.85;2.17;;;;;;;27.09;nan;62521.47;5013397;28;20271;-64
2023/10/06 11:10:04;;;;;;;5.22;2.38;;;;;;;27.15;nan;62635.31;5012856;28;20176;-63
2023/10/06 11:12:35;;;;;;;2.80;1.60;;;;;;;27.44;nan;62652.81;5012890;28;20264;-64
2023/10/06 11:15:13;;;;;;;2.97;1.92;;;;;;;27.54;nan;62553.41;5012817;28;20190;-62
2023/10/06 11:17:41;;;;;;;2.03;1.73;;;;;;;27.77;nan;62634.91;5012917;28;20577;-66
2023/10/06 11:20:27;;;;;;;2.17;1.60;;;;;;;27.69;nan;62612.59;5012989;28;20179;-65
2023/10/06 11:22:59;;;;;;;3.30;1.95;;;;;;;27.82;nan;62698.41;5012635;28;20163;-64
2023/10/06 11:25:28;;;;;;;2.00;1.60;;;;;;;27.15;nan;62446.97;5012139;28;20216;-63
2023/10/06 11:28:03;;;;;;;3.65;2.03;;;;;;;27.41;nan;62573.22;5012337;28;20234;-65
2023/10/06 11:30:33;;;;;;;2.28;1.80;;;;;;;27.30;nan;62694.50;5012527;28;20207;-63
2023/10/06 11:33:04;;;;;;;2.75;1.92;;;;;;;27.48;nan;62572.78;5011245;28;20623;-64
2023/10/06 11:35:34;;;;;;;2.30;1.80;;;;;;;27.31;nan;62555.97;5010784;28;20722;-62
2023/10/06 11:38:01;;;;;;;2.65;1.75;;;;;;;27.08;nan;62441.03;5012533;28;20572;-65
2023/10/06 11:40:27;;;;;;;2.15;1.77;;;;;;;27.33;nan;62637.56;5012382;28;20180;-64
2023/10/06 11:42:53;;;;;;;3.10;1.75;;;;;;;27.44;nan;62576.66;5012558;28;20176;-63
2023/10/06 11:45:24;;;;;;;2.63;2.10;;;;;;;27.51;nan;62660.84;5012085;28;20620;-62
2023/10/06 11:47:51;;;;;;;3.22;1.80;;;;;;;27.33;nan;62665.88;5012249;28;20179;-65
2023/10/06 11:50:32;;;;;;;5.00;2.15;;;;;;;27.25;nan;62570.66;5011953;28;20278;-63
2023/10/06 11:52:59;;;;;;;4.03;2.47;;;;;;;27.02;nan;62589.53;5012526;28;20210;-62
2023/10/06 11:55:31;;;;;;;3.45;1.80;;;;;;;27.28;nan;62713.22;5012303;28;20171;-63
2023/10/06 11:58:00;;;;;;;2.45;1.67;;;;;;;27.58;nan;62576.38;5012402;28;20246;-63
2023/10/06 12:00:43;;;;;;;2.25;1.70;;;;;;;27.53;nan;62610.03;5012028;28;20255;-63
2023/10/06 12:03:11;;;;;;;3.05;1.70;;;;;;;27.83;nan;62696.94;5012190;28;20176;-63
2023/10/06 12:05:37;;;;;;;3.13;1.92;;;;;;;27.83;nan;62744.22;5012497;28;20263;-63